sensor_id;sensor_type;location;lat;lon;timestamp;P1;durP1;ratioP1;P2;durP2;ratioP2
7289;SDS011;63176;52.678;13.250;2023-02-28T00:00:46;3.80;;;3.37;;
7289;SDS011;63176;52.678;13.250;2023-02-28T00:03:12;5.83;;;3.90;;
7289;SDS011;63176;52.678;13.250;2023-02-28T00:05:38;4.30;;;3.43;;
7289;SDS011;63176;52.678;13.250;2023-02-28T00:08:03;7.90;;;4.87;;
7289;SDS011;63176;52.678;13.250;2023-02-28T00:10:30;6.00;;;4.35;;
7289;SDS011;63176;52.678;13.250;2023-02-28T00:12:59;4.65;;;3.13;;
7289;SDS011;63176;52.678;13.250;2023-02-28T00:15:28;7.32;;;4.00;;
7289;SDS011;63176;52.678;13.250;2023-02-28T00:17:53;5.03;;;3.73;;
7289;SDS011;63176;52.678;13.250;2023-02-28T00:20:19;7.20;;;3.63;;
7289;SDS011;63176;52.678;13.250;2023-02-28T00:22:46;4.90;;;3.73;;
7289;SDS011;63176;52.678;13.250;2023-02-28T00:25:14;4.97;;;3.17;;
7289;SDS011;63176;52.678;13.250;2023-02-28T00:27:42;5.53;;;2.92;;
7289;SDS011;63176;52.678;13.250;2023-02-28T00:30:10;3.90;;;3.10;;
7289;SDS011;63176;52.678;13.250;2023-02-28T00:32:37;5.95;;;3.92;;
7289;SDS011;63176;52.678;13.250;2023-02-28T00:35:03;7.73;;;4.30;;
7289;SDS011;63176;52.678;13.250;2023-02-28T00:37:30;6.63;;;3.78;;
7289;SDS011;63176;52.678;13.250;2023-02-28T00:39:56;5.30;;;3.63;;
7289;SDS011;63176;52.678;13.250;2023-02-28T00:42:21;4.80;;;4.30;;
7289;SDS011;63176;52.678;13.250;2023-02-28T00:44:47;3.83;;;3.10;;
7289;SDS011;63176;52.678;13.250;2023-02-28T00:47:13;10.40;;;3.40;;
7289;SDS011;63176;52.678;13.250;2023-02-28T00:49:39;10.65;;;4.40;;
7289;SDS011;63176;52.678;13.250;2023-02-28T00:52:05;7.13;;;3.13;;
7289;SDS011;63176;52.678;13.250;2023-02-28T00:54:31;6.70;;;3.80;;
7289;SDS011;63176;52.678;13.250;2023-02-28T00:56:56;4.37;;;3.20;;
7289;SDS011;63176;52.678;13.250;2023-02-28T00:59:23;5.65;;;2.90;;
7289;SDS011;63176;52.678;13.250;2023-02-28T01:01:48;4.30;;;3.33;;
7289;SDS011;63176;52.678;13.250;2023-02-28T01:04:14;9.13;;;4.10;;
7289;SDS011;63176;52.678;13.250;2023-02-28T01:06:40;7.50;;;3.57;;
7289;SDS011;63176;52.678;13.250;2023-02-28T01:09:06;3.57;;;3.07;;
7289;SDS011;63176;52.678;13.250;2023-02-28T01:11:33;4.43;;;2.50;;
7289;SDS011;63176;52.678;13.250;2023-02-28T01:13:59;7.00;;;3.83;;
7289;SDS011;63176;52.678;13.250;2023-02-28T01:16:25;3.88;;;3.33;;
7289;SDS011;63176;52.678;13.250;2023-02-28T01:18:51;7.57;;;3.90;;
7289;SDS011;63176;52.678;13.250;2023-02-28T01:21:18;5.23;;;3.20;;
7289;SDS011;63176;52.678;13.250;2023-02-28T01:23:45;8.23;;;4.05;;
7289;SDS011;63176;52.678;13.250;2023-02-28T01:26:15;6.97;;;4.07;;
7289;SDS011;63176;52.678;13.250;2023-02-28T01:28:43;7.10;;;3.05;;
7289;SDS011;63176;52.678;13.250;2023-02-28T01:31:09;4.47;;;3.40;;
7289;SDS011;63176;52.678;13.250;2023-02-28T01:33:35;4.10;;;3.50;;
7289;SDS011;63176;52.678;13.250;2023-02-28T01:36:03;6.40;;;3.45;;
7289;SDS011;63176;52.678;13.250;2023-02-28T01:38:34;7.50;;;3.63;;
7289;SDS011;63176;52.678;13.250;2023-02-28T01:41:00;7.93;;;4.00;;
7289;SDS011;63176;52.678;13.250;2023-02-28T01:43:30;4.83;;;3.67;;
7289;SDS011;63176;52.678;13.250;2023-02-28T01:45:58;5.30;;;3.20;;
7289;SDS011;63176;52.678;13.250;2023-02-28T01:48:25;7.00;;;3.72;;
7289;SDS011;63176;52.678;13.250;2023-02-28T01:50:56;4.32;;;3.38;;
7289;SDS011;63176;52.678;13.250;2023-02-28T01:53:36;6.03;;;3.10;;
7289;SDS011;63176;52.678;13.250;2023-02-28T01:56:07;3.58;;;3.28;;
7289;SDS011;63176;52.678;13.250;2023-02-28T01:58:37;3.40;;;2.30;;
7289;SDS011;63176;52.678;13.250;2023-02-28T02:01:03;6.22;;;3.50;;
7289;SDS011;63176;52.678;13.250;2023-02-28T02:03:29;6.80;;;3.55;;
7289;SDS011;63176;52.678;13.250;2023-02-28T02:05:56;5.38;;;3.00;;
7289;SDS011;63176;52.678;13.250;2023-02-28T02:08:25;4.50;;;2.80;;
7289;SDS011;63176;52.678;13.250;2023-02-28T02:11:00;11.25;;;2.97;;
7289;SDS011;63176;52.678;13.250;2023-02-28T02:18:35;5.57;;;3.53;;
7289;SDS011;63176;52.678;13.250;2023-02-28T02:21:34;3.58;;;3.25;;
7289;SDS011;63176;52.678;13.250;2023-02-28T02:32:29;3.05;;;2.47;;
7289;SDS011;63176;52.678;13.250;2023-02-28T02:49:26;6.15;;;3.30;;
7289;SDS011;63176;52.678;13.250;2023-02-28T02:51:56;5.18;;;3.05;;
7289;SDS011;63176;52.678;13.250;2023-02-28T02:54:30;7.50;;;3.88;;
7289;SDS011;63176;52.678;13.250;2023-02-28T02:57:03;2.83;;;2.55;;
7289;SDS011;63176;52.678;13.250;2023-02-28T02:59:33;3.45;;;2.83;;
7289;SDS011;63176;52.678;13.250;2023-02-28T03:02:01;4.25;;;2.60;;
7289;SDS011;63176;52.678;13.250;2023-02-28T03:04:32;4.70;;;2.92;;
7289;SDS011;63176;52.678;13.250;2023-02-28T03:07:03;5.25;;;3.13;;
7289;SDS011;63176;52.678;13.250;2023-02-28T03:09:28;5.80;;;2.87;;
7289;SDS011;63176;52.678;13.250;2023-02-28T03:11:58;3.10;;;2.80;;
7289;SDS011;63176;52.678;13.250;2023-02-28T03:25:52;10.10;;;2.63;;
7289;SDS011;63176;52.678;13.250;2023-02-28T03:30:53;5.50;;;2.88;;
7289;SDS011;63176;52.678;13.250;2023-02-28T03:36:16;9.80;;;3.22;;
7289;SDS011;63176;52.678;13.250;2023-02-28T03:38:46;3.30;;;2.97;;
7289;SDS011;63176;52.678;13.250;2023-02-28T03:41:22;6.93;;;3.45;;
7289;SDS011;63176;52.678;13.250;2023-02-28T03:44:00;4.40;;;2.97;;
7289;SDS011;63176;52.678;13.250;2023-02-28T03:46:41;5.63;;;3.35;;
7289;SDS011;63176;52.678;13.250;2023-02-28T03:49:23;4.13;;;2.95;;
7289;SDS011;63176;52.678;13.250;2023-02-28T03:51:53;3.40;;;2.95;;
7289;SDS011;63176;52.678;13.250;2023-02-28T03:57:15;5.07;;;3.42;;
7289;SDS011;63176;52.678;13.250;2023-02-28T03:59:56;6.00;;;3.25;;
7289;SDS011;63176;52.678;13.250;2023-02-28T04:02:29;3.80;;;2.72;;
7289;SDS011;63176;52.678;13.250;2023-02-28T04:04:54;2.70;;;2.47;;
7289;SDS011;63176;52.678;13.250;2023-02-28T04:07:20;5.40;;;2.90;;
7289;SDS011;63176;52.678;13.250;2023-02-28T04:09:46;3.40;;;2.03;;
7289;SDS011;63176;52.678;13.250;2023-02-28T04:12:12;4.73;;;2.70;;
7289;SDS011;63176;52.678;13.250;2023-02-28T04:14:37;11.33;;;1.80;;
7289;SDS011;63176;52.678;13.250;2023-02-28T04:17:03;4.23;;;2.53;;
7289;SDS011;63176;52.678;13.250;2023-02-28T04:19:29;9.60;;;2.77;;
7289;SDS011;63176;52.678;13.250;2023-02-28T04:21:54;2.63;;;2.07;;
7289;SDS011;63176;52.678;13.250;2023-02-28T04:24:21;7.00;;;2.90;;
7289;SDS011;63176;52.678;13.250;2023-02-28T04:26:50;4.20;;;2.90;;
7289;SDS011;63176;52.678;13.250;2023-02-28T04:29:23;3.53;;;2.55;;
7289;SDS011;63176;52.678;13.250;2023-02-28T04:31:50;6.70;;;3.13;;
7289;SDS011;63176;52.678;13.250;2023-02-28T04:34:16;5.15;;;2.42;;
7289;SDS011;63176;52.678;13.250;2023-02-28T04:36:43;4.20;;;2.08;;
7289;SDS011;63176;52.678;13.250;2023-02-28T04:39:10;16.88;;;3.67;;
7289;SDS011;63176;52.678;13.250;2023-02-28T04:41:36;7.97;;;2.70;;
7289;SDS011;63176;52.678;13.250;2023-02-28T04:44:03;9.70;;;2.95;;
7289;SDS011;63176;52.678;13.250;2023-02-28T04:46:28;3.80;;;3.20;;
7289;SDS011;63176;52.678;13.250;2023-02-28T04:48:55;6.63;;;2.20;;
7289;SDS011;63176;52.678;13.250;2023-02-28T04:51:21;2.53;;;2.33;;
7289;SDS011;63176;52.678;13.250;2023-02-28T04:53:47;4.13;;;2.67;;
7289;SDS011;63176;52.678;13.250;2023-02-28T04:56:13;3.17;;;2.60;;
7289;SDS011;63176;52.678;13.250;2023-02-28T04:58:40;4.70;;;2.72;;
7289;SDS011;63176;52.678;13.250;2023-02-28T05:01:29;3.50;;;2.78;;
7289;SDS011;63176;52.678;13.250;2023-02-28T05:03:56;3.90;;;2.40;;
7289;SDS011;63176;52.678;13.250;2023-02-28T05:06:24;2.65;;;2.45;;
7289;SDS011;63176;52.678;13.250;2023-02-28T05:08:50;4.07;;;2.25;;
7289;SDS011;63176;52.678;13.250;2023-02-28T05:11:27;3.58;;;2.67;;
7289;SDS011;63176;52.678;13.250;2023-02-28T05:13:59;5.95;;;2.80;;
7289;SDS011;63176;52.678;13.250;2023-02-28T05:16:26;5.63;;;2.22;;
7289;SDS011;63176;52.678;13.250;2023-02-28T05:18:52;6.13;;;2.57;;
7289;SDS011;63176;52.678;13.250;2023-02-28T05:21:32;2.00;;;1.80;;
7289;SDS011;63176;52.678;13.250;2023-02-28T05:24:04;4.43;;;1.80;;
7289;SDS011;63176;52.678;13.250;2023-02-28T05:26:33;3.75;;;2.22;;
7289;SDS011;63176;52.678;13.250;2023-02-28T05:29:00;3.63;;;2.10;;
7289;SDS011;63176;52.678;13.250;2023-02-28T05:31:26;3.50;;;2.43;;
7289;SDS011;63176;52.678;13.250;2023-02-28T05:33:52;6.47;;;2.20;;
7289;SDS011;63176;52.678;13.250;2023-02-28T05:36:18;5.13;;;2.50;;
7289;SDS011;63176;52.678;13.250;2023-02-28T05:38:45;6.37;;;2.33;;
7289;SDS011;63176;52.678;13.250;2023-02-28T05:41:12;4.35;;;2.80;;
7289;SDS011;63176;52.678;13.250;2023-02-28T05:43:37;4.23;;;2.57;;
7289;SDS011;63176;52.678;13.250;2023-02-28T05:46:07;4.47;;;2.60;;
7289;SDS011;63176;52.678;13.250;2023-02-28T05:48:35;2.50;;;2.03;;
7289;SDS011;63176;52.678;13.250;2023-02-28T05:51:02;3.85;;;2.35;;
7289;SDS011;63176;52.678;13.250;2023-02-28T05:53:32;2.35;;;1.95;;
7289;SDS011;63176;52.678;13.250;2023-02-28T05:55:58;3.55;;;2.75;;
7289;SDS011;63176;52.678;13.250;2023-02-28T05:58:24;10.65;;;4.53;;
7289;SDS011;63176;52.678;13.250;2023-02-28T06:00:54;5.35;;;2.85;;
7289;SDS011;63176;52.678;13.250;2023-02-28T06:03:19;3.93;;;2.97;;
7289;SDS011;63176;52.678;13.250;2023-02-28T06:05:45;5.40;;;3.13;;
7289;SDS011;63176;52.678;13.250;2023-02-28T06:08:11;5.37;;;2.73;;
7289;SDS011;63176;52.678;13.250;2023-02-28T06:10:36;4.87;;;2.77;;
7289;SDS011;63176;52.678;13.250;2023-02-28T06:13:02;3.33;;;3.03;;
7289;SDS011;63176;52.678;13.250;2023-02-28T06:15:29;6.07;;;2.78;;
7289;SDS011;63176;52.678;13.250;2023-02-28T06:17:55;4.90;;;3.03;;
7289;SDS011;63176;52.678;13.250;2023-02-28T06:20:22;7.30;;;3.13;;
7289;SDS011;63176;52.678;13.250;2023-02-28T06:22:48;4.43;;;3.28;;
7289;SDS011;63176;52.678;13.250;2023-02-28T06:25:16;2.35;;;2.13;;
7289;SDS011;63176;52.678;13.250;2023-02-28T06:27:42;6.07;;;3.45;;
7289;SDS011;63176;52.678;13.250;2023-02-28T06:30:09;5.75;;;2.78;;
7289;SDS011;63176;52.678;13.250;2023-02-28T06:32:38;5.60;;;2.78;;
7289;SDS011;63176;52.678;13.250;2023-02-28T06:35:04;5.78;;;2.55;;
7289;SDS011;63176;52.678;13.250;2023-02-28T06:37:31;2.78;;;2.45;;
7289;SDS011;63176;52.678;13.250;2023-02-28T06:39:57;5.47;;;2.72;;
7289;SDS011;63176;52.678;13.250;2023-02-28T06:42:23;4.30;;;2.37;;
7289;SDS011;63176;52.678;13.250;2023-02-28T06:44:54;2.75;;;1.98;;
7289;SDS011;63176;52.678;13.250;2023-02-28T06:47:20;4.38;;;2.70;;
7289;SDS011;63176;52.678;13.250;2023-02-28T06:49:46;7.55;;;2.85;;
7289;SDS011;63176;52.678;13.250;2023-02-28T06:52:12;6.03;;;3.30;;
7289;SDS011;63176;52.678;13.250;2023-02-28T06:54:39;5.38;;;2.58;;
7289;SDS011;63176;52.678;13.250;2023-02-28T06:57:04;2.63;;;2.40;;
7289;SDS011;63176;52.678;13.250;2023-02-28T06:59:30;30.33;;;3.83;;
7289;SDS011;63176;52.678;13.250;2023-02-28T07:01:56;6.73;;;3.03;;
7289;SDS011;63176;52.678;13.250;2023-02-28T07:04:22;4.93;;;3.30;;
7289;SDS011;63176;52.678;13.250;2023-02-28T07:06:47;5.90;;;4.07;;
7289;SDS011;63176;52.678;13.250;2023-02-28T07:09:13;4.83;;;3.70;;
7289;SDS011;63176;52.678;13.250;2023-02-28T07:11:39;12.45;;;3.75;;
7289;SDS011;63176;52.678;13.250;2023-02-28T07:14:07;3.95;;;3.55;;
7289;SDS011;63176;52.678;13.250;2023-02-28T07:16:33;9.55;;;5.30;;
7289;SDS011;63176;52.678;13.250;2023-02-28T07:19:00;8.77;;;3.78;;
7289;SDS011;63176;52.678;13.250;2023-02-28T07:21:25;8.27;;;4.60;;
7289;SDS011;63176;52.678;13.250;2023-02-28T07:23:51;11.80;;;4.80;;
7289;SDS011;63176;52.678;13.250;2023-02-28T07:26:18;9.77;;;5.00;;
7289;SDS011;63176;52.678;13.250;2023-02-28T07:28:45;8.68;;;5.40;;
7289;SDS011;63176;52.678;13.250;2023-02-28T07:31:13;7.43;;;4.05;;
7289;SDS011;63176;52.678;13.250;2023-02-28T07:33:39;7.82;;;3.45;;
7289;SDS011;63176;52.678;13.250;2023-02-28T07:36:07;12.00;;;6.35;;
7289;SDS011;63176;52.678;13.250;2023-02-28T07:38:38;9.80;;;5.68;;
7289;SDS011;63176;52.678;13.250;2023-02-28T07:41:04;13.57;;;8.23;;
7289;SDS011;63176;52.678;13.250;2023-02-28T07:43:30;10.37;;;5.70;;
7289;SDS011;63176;52.678;13.250;2023-02-28T07:46:01;9.50;;;6.65;;
7289;SDS011;63176;52.678;13.250;2023-02-28T07:48:28;17.63;;;4.20;;
7289;SDS011;63176;52.678;13.250;2023-02-28T07:50:55;5.97;;;4.70;;
7289;SDS011;63176;52.678;13.250;2023-02-28T07:53:21;6.18;;;3.30;;
7289;SDS011;63176;52.678;13.250;2023-02-28T07:55:47;6.57;;;3.20;;
7289;SDS011;63176;52.678;13.250;2023-02-28T07:58:13;5.32;;;2.65;;
7289;SDS011;63176;52.678;13.250;2023-02-28T08:00:38;3.20;;;2.90;;
7289;SDS011;63176;52.678;13.250;2023-02-28T08:03:04;3.13;;;2.70;;
7289;SDS011;63176;52.678;13.250;2023-02-28T08:05:30;5.83;;;3.37;;
7289;SDS011;63176;52.678;13.250;2023-02-28T08:07:56;6.03;;;3.20;;
7289;SDS011;63176;52.678;13.250;2023-02-28T08:10:21;4.13;;;2.75;;
7289;SDS011;63176;52.678;13.250;2023-02-28T08:12:48;4.95;;;2.95;;
7289;SDS011;63176;52.678;13.250;2023-02-28T08:15:14;6.07;;;3.00;;
7289;SDS011;63176;52.678;13.250;2023-02-28T08:17:40;6.20;;;3.53;;
7289;SDS011;63176;52.678;13.250;2023-02-28T08:20:06;14.07;;;3.90;;
7289;SDS011;63176;52.678;13.250;2023-02-28T08:22:32;6.85;;;3.70;;
7289;SDS011;63176;52.678;13.250;2023-02-28T08:24:58;5.37;;;3.50;;
7289;SDS011;63176;52.678;13.250;2023-02-28T08:27:23;4.73;;;3.60;;
7289;SDS011;63176;52.678;13.250;2023-02-28T08:29:49;4.70;;;3.50;;
7289;SDS011;63176;52.678;13.250;2023-02-28T08:32:15;4.93;;;3.50;;
7289;SDS011;63176;52.678;13.250;2023-02-28T08:34:40;4.20;;;2.70;;
7289;SDS011;63176;52.678;13.250;2023-02-28T08:37:06;4.30;;;3.90;;
7289;SDS011;63176;52.678;13.250;2023-02-28T08:39:35;5.60;;;4.10;;
7289;SDS011;63176;52.678;13.250;2023-02-28T08:42:01;6.53;;;3.85;;
7289;SDS011;63176;52.678;13.250;2023-02-28T08:44:28;6.43;;;3.50;;
7289;SDS011;63176;52.678;13.250;2023-02-28T08:46:55;4.03;;;3.17;;
7289;SDS011;63176;52.678;13.250;2023-02-28T08:49:20;4.50;;;3.70;;
7289;SDS011;63176;52.678;13.250;2023-02-28T08:51:46;5.83;;;3.33;;
7289;SDS011;63176;52.678;13.250;2023-02-28T08:54:11;5.53;;;2.90;;
7289;SDS011;63176;52.678;13.250;2023-02-28T08:56:38;6.93;;;2.77;;
7289;SDS011;63176;52.678;13.250;2023-02-28T08:59:04;4.57;;;3.00;;
7289;SDS011;63176;52.678;13.250;2023-02-28T09:01:30;6.60;;;2.93;;
7289;SDS011;63176;52.678;13.250;2023-02-28T09:03:56;4.38;;;2.60;;
7289;SDS011;63176;52.678;13.250;2023-02-28T09:06:24;2.30;;;1.83;;
7289;SDS011;63176;52.678;13.250;2023-02-28T09:08:51;3.70;;;2.00;;
7289;SDS011;63176;52.678;13.250;2023-02-28T09:11:17;2.20;;;1.70;;
7289;SDS011;63176;52.678;13.250;2023-02-28T09:13:44;2.33;;;1.60;;
7289;SDS011;63176;52.678;13.250;2023-02-28T09:16:11;2.05;;;1.60;;
7289;SDS011;63176;52.678;13.250;2023-02-28T09:18:38;6.32;;;1.38;;
7289;SDS011;63176;52.678;13.250;2023-02-28T09:21:05;1.83;;;1.00;;
7289;SDS011;63176;52.678;13.250;2023-02-28T09:23:36;1.83;;;0.90;;
7289;SDS011;63176;52.678;13.250;2023-02-28T09:26:05;0.88;;;0.85;;
7289;SDS011;63176;52.678;13.250;2023-02-28T09:28:31;1.40;;;1.30;;
7289;SDS011;63176;52.678;13.250;2023-02-28T09:30:57;1.73;;;0.90;;
7289;SDS011;63176;52.678;13.250;2023-02-28T09:33:24;1.42;;;1.33;;
7289;SDS011;63176;52.678;13.250;2023-02-28T09:35:50;1.67;;;1.35;;
7289;SDS011;63176;52.678;13.250;2023-02-28T09:38:22;2.63;;;1.67;;
7289;SDS011;63176;52.678;13.250;2023-02-28T09:41:22;1.60;;;1.50;;
7289;SDS011;63176;52.678;13.250;2023-02-28T09:43:46;0.98;;;0.88;;
7289;SDS011;63176;52.678;13.250;2023-02-28T09:46:29;3.55;;;0.93;;
7289;SDS011;63176;52.678;13.250;2023-02-28T09:49:05;0.95;;;0.85;;
7289;SDS011;63176;52.678;13.250;2023-02-28T09:51:40;1.85;;;1.25;;
7289;SDS011;63176;52.678;13.250;2023-02-28T09:54:28;1.42;;;1.20;;
7289;SDS011;63176;52.678;13.250;2023-02-28T10:09:14;1.70;;;1.00;;
7289;SDS011;63176;52.678;13.250;2023-02-28T10:11:55;1.05;;;0.90;;
7289;SDS011;63176;52.678;13.250;2023-02-28T10:14:26;1.50;;;0.70;;
7289;SDS011;63176;52.678;13.250;2023-02-28T10:17:02;1.38;;;1.23;;
7289;SDS011;63176;52.678;13.250;2023-02-28T10:22:46;0.95;;;0.77;;
7289;SDS011;63176;52.678;13.250;2023-02-28T10:25:33;1.40;;;0.80;;
7289;SDS011;63176;52.678;13.250;2023-02-28T10:28:19;1.98;;;0.82;;
7289;SDS011;63176;52.678;13.250;2023-02-28T10:30:49;1.27;;;0.97;;
7289;SDS011;63176;52.678;13.250;2023-02-28T10:35:49;1.50;;;0.97;;
7289;SDS011;63176;52.678;13.250;2023-02-28T10:38:21;1.63;;;0.80;;
7289;SDS011;63176;52.678;13.250;2023-02-28T10:40:49;1.43;;;0.80;;
7289;SDS011;63176;52.678;13.250;2023-02-28T10:45:52;1.50;;;1.13;;
7289;SDS011;63176;52.678;13.250;2023-02-28T10:48:35;1.30;;;1.00;;
7289;SDS011;63176;52.678;13.250;2023-02-28T10:51:12;1.93;;;1.03;;
7289;SDS011;63176;52.678;13.250;2023-02-28T10:53:52;2.15;;;1.38;;
7289;SDS011;63176;52.678;13.250;2023-02-28T10:56:25;1.65;;;1.55;;
7289;SDS011;63176;52.678;13.250;2023-02-28T11:01:19;1.67;;;0.90;;
7289;SDS011;63176;52.678;13.250;2023-02-28T11:03:48;2.08;;;1.08;;
7289;SDS011;63176;52.678;13.250;2023-02-28T11:06:16;1.70;;;1.48;;
7289;SDS011;63176;52.678;13.250;2023-02-28T11:09:33;1.13;;;1.00;;
7289;SDS011;63176;52.678;13.250;2023-02-28T11:11:49;6.70;;;1.23;;
7289;SDS011;63176;52.678;13.250;2023-02-28T11:14:25;1.90;;;0.80;;
7289;SDS011;63176;52.678;13.250;2023-02-28T11:16:57;2.78;;;1.45;;
7289;SDS011;63176;52.678;13.250;2023-02-28T11:19:38;1.65;;;1.50;;
7289;SDS011;63176;52.678;13.250;2023-02-28T11:22:09;1.35;;;1.10;;
7289;SDS011;63176;52.678;13.250;2023-02-28T11:24:42;9.88;;;1.60;;
7289;SDS011;63176;52.678;13.250;2023-02-28T11:27:24;1.50;;;1.15;;
7289;SDS011;63176;52.678;13.250;2023-02-28T11:29:56;1.70;;;1.10;;
7289;SDS011;63176;52.678;13.250;2023-02-28T11:32:27;1.63;;;1.10;;
7289;SDS011;63176;52.678;13.250;2023-02-28T11:37:36;1.70;;;1.30;;
7289;SDS011;63176;52.678;13.250;2023-02-28T11:40:13;1.60;;;1.37;;
7289;SDS011;63176;52.678;13.250;2023-02-28T11:51:18;1.60;;;1.27;;
7289;SDS011;63176;52.678;13.250;2023-02-28T11:54:07;2.28;;;1.02;;
7289;SDS011;63176;52.678;13.250;2023-02-28T11:56:43;2.15;;;1.20;;
7289;SDS011;63176;52.678;13.250;2023-02-28T12:02:30;2.35;;;1.33;;
7289;SDS011;63176;52.678;13.250;2023-02-28T12:05:23;1.27;;;1.10;;
7289;SDS011;63176;52.678;13.250;2023-02-28T12:11:05;3.80;;;1.70;;
7289;SDS011;63176;52.678;13.250;2023-02-28T12:19:05;1.73;;;1.63;;
7289;SDS011;63176;52.678;13.250;2023-02-28T12:22:19;2.33;;;1.15;;
7289;SDS011;63176;52.678;13.250;2023-02-28T12:24:44;1.58;;;1.10;;
7289;SDS011;63176;52.678;13.250;2023-02-28T12:27:28;3.88;;;1.15;;
7289;SDS011;63176;52.678;13.250;2023-02-28T12:29:59;3.08;;;1.40;;
7289;SDS011;63176;52.678;13.250;2023-02-28T12:32:43;0.90;;;0.90;;
7289;SDS011;63176;52.678;13.250;2023-02-28T12:35:13;4.13;;;1.00;;
7289;SDS011;63176;52.678;13.250;2023-02-28T12:40:19;1.95;;;1.00;;
7289;SDS011;63176;52.678;13.250;2023-02-28T12:42:57;1.73;;;1.05;;
7289;SDS011;63176;52.678;13.250;2023-02-28T12:48:31;2.10;;;1.70;;
7289;SDS011;63176;52.678;13.250;2023-02-28T12:51:08;0.80;;;0.80;;
7289;SDS011;63176;52.678;13.250;2023-02-28T12:56:21;2.45;;;0.77;;
7289;SDS011;63176;52.678;13.250;2023-02-28T12:59:17;1.58;;;1.15;;
7289;SDS011;63176;52.678;13.250;2023-02-28T13:02:24;1.65;;;1.20;;
7289;SDS011;63176;52.678;13.250;2023-02-28T13:10:50;1.23;;;1.08;;
7289;SDS011;63176;52.678;13.250;2023-02-28T13:13:20;1.85;;;1.42;;
7289;SDS011;63176;52.678;13.250;2023-02-28T13:18:45;1.30;;;0.90;;
7289;SDS011;63176;52.678;13.250;2023-02-28T13:34:31;1.20;;;1.05;;
7289;SDS011;63176;52.678;13.250;2023-02-28T13:47:38;0.98;;;0.85;;
7289;SDS011;63176;52.678;13.250;2023-02-28T13:52:48;1.38;;;1.02;;
7289;SDS011;63176;52.678;13.250;2023-02-28T14:06:54;1.30;;;0.95;;
7289;SDS011;63176;52.678;13.250;2023-02-28T14:09:31;1.23;;;0.93;;
7289;SDS011;63176;52.678;13.250;2023-02-28T14:15:04;2.55;;;1.20;;
7289;SDS011;63176;52.678;13.250;2023-02-28T14:17:53;1.50;;;1.30;;
7289;SDS011;63176;52.678;13.250;2023-02-28T14:20:21;1.77;;;1.20;;
7289;SDS011;63176;52.678;13.250;2023-02-28T14:25:22;1.20;;;0.97;;
7289;SDS011;63176;52.678;13.250;2023-02-28T14:28:01;2.10;;;1.20;;
7289;SDS011;63176;52.678;13.250;2023-02-28T14:38:18;1.20;;;1.05;;
7289;SDS011;63176;52.678;13.250;2023-02-28T14:40:49;1.20;;;1.10;;
7289;SDS011;63176;52.678;13.250;2023-02-28T14:43:23;1.50;;;0.77;;
7289;SDS011;63176;52.678;13.250;2023-02-28T14:46:00;2.78;;;1.20;;
7289;SDS011;63176;52.678;13.250;2023-02-28T14:48:29;1.98;;;0.90;;
7289;SDS011;63176;52.678;13.250;2023-02-28T14:50:56;5.10;;;1.07;;
7289;SDS011;63176;52.678;13.250;2023-02-28T14:53:25;1.48;;;1.25;;
7289;SDS011;63176;52.678;13.250;2023-02-28T14:55:53;1.73;;;1.30;;
7289;SDS011;63176;52.678;13.250;2023-02-28T14:58:24;1.00;;;0.80;;
7289;SDS011;63176;52.678;13.250;2023-02-28T15:00:55;1.00;;;0.80;;
7289;SDS011;63176;52.678;13.250;2023-02-28T15:03:33;2.20;;;1.15;;
7289;SDS011;63176;52.678;13.250;2023-02-28T15:06:02;1.40;;;0.93;;
7289;SDS011;63176;52.678;13.250;2023-02-28T15:08:29;1.45;;;0.85;;
7289;SDS011;63176;52.678;13.250;2023-02-28T15:11:13;1.27;;;1.17;;
7289;SDS011;63176;52.678;13.250;2023-02-28T15:16:13;2.25;;;1.40;;
7289;SDS011;63176;52.678;13.250;2023-02-28T15:18:49;1.75;;;1.05;;
7289;SDS011;63176;52.678;13.250;2023-02-28T15:21:23;1.85;;;1.15;;
7289;SDS011;63176;52.678;13.250;2023-02-28T15:23:56;2.28;;;1.38;;
7289;SDS011;63176;52.678;13.250;2023-02-28T15:26:24;1.13;;;1.02;;
7289;SDS011;63176;52.678;13.250;2023-02-28T15:28:58;2.05;;;1.10;;
7289;SDS011;63176;52.678;13.250;2023-02-28T15:31:27;1.52;;;1.42;;
7289;SDS011;63176;52.678;13.250;2023-02-28T15:34:05;1.95;;;0.90;;
7289;SDS011;63176;52.678;13.250;2023-02-28T15:36:33;4.60;;;1.00;;
7289;SDS011;63176;52.678;13.250;2023-02-28T15:39:02;3.28;;;1.27;;
7289;SDS011;63176;52.678;13.250;2023-02-28T15:41:43;1.52;;;1.05;;
7289;SDS011;63176;52.678;13.250;2023-02-28T15:44:16;1.50;;;1.17;;
7289;SDS011;63176;52.678;13.250;2023-02-28T15:46:44;1.85;;;1.38;;
7289;SDS011;63176;52.678;13.250;2023-02-28T15:49:29;1.20;;;1.10;;
7289;SDS011;63176;52.678;13.250;2023-02-28T15:52:03;1.40;;;1.30;;
7289;SDS011;63176;52.678;13.250;2023-02-28T15:54:30;1.40;;;1.10;;
7289;SDS011;63176;52.678;13.250;2023-02-28T15:57:11;5.05;;;1.00;;
7289;SDS011;63176;52.678;13.250;2023-02-28T15:59:45;2.90;;;1.40;;
7289;SDS011;63176;52.678;13.250;2023-02-28T16:02:21;2.03;;;1.85;;
7289;SDS011;63176;52.678;13.250;2023-02-28T16:05:02;3.10;;;1.50;;
7289;SDS011;63176;52.678;13.250;2023-02-28T16:07:31;1.27;;;1.17;;
7289;SDS011;63176;52.678;13.250;2023-02-28T16:09:59;1.23;;;1.13;;
7289;SDS011;63176;52.678;13.250;2023-02-28T16:12:26;1.30;;;1.20;;
7289;SDS011;63176;52.678;13.250;2023-02-28T16:14:57;5.20;;;1.40;;
7289;SDS011;63176;52.678;13.250;2023-02-28T16:17:28;3.83;;;1.42;;
7289;SDS011;63176;52.678;13.250;2023-02-28T16:19:56;1.80;;;1.52;;
7289;SDS011;63176;52.678;13.250;2023-02-28T16:22:22;5.25;;;1.90;;
7289;SDS011;63176;52.678;13.250;2023-02-28T16:24:48;2.30;;;1.87;;
7289;SDS011;63176;52.678;13.250;2023-02-28T16:27:30;2.40;;;1.70;;
7289;SDS011;63176;52.678;13.250;2023-02-28T16:29:58;2.30;;;1.45;;
7289;SDS011;63176;52.678;13.250;2023-02-28T16:32:23;1.90;;;1.70;;
7289;SDS011;63176;52.678;13.250;2023-02-28T16:34:49;2.83;;;1.47;;
7289;SDS011;63176;52.678;13.250;2023-02-28T16:37:16;2.47;;;2.10;;
7289;SDS011;63176;52.678;13.250;2023-02-28T16:39:43;3.35;;;2.28;;
7289;SDS011;63176;52.678;13.250;2023-02-28T16:42:17;3.33;;;2.30;;
7289;SDS011;63176;52.678;13.250;2023-02-28T16:44:48;5.80;;;3.42;;
7289;SDS011;63176;52.678;13.250;2023-02-28T16:47:13;5.32;;;3.60;;
7289;SDS011;63176;52.678;13.250;2023-02-28T16:49:39;3.53;;;2.80;;
7289;SDS011;63176;52.678;13.250;2023-02-28T16:52:08;4.43;;;2.60;;
7289;SDS011;63176;52.678;13.250;2023-02-28T16:54:34;3.40;;;2.30;;
7289;SDS011;63176;52.678;13.250;2023-02-28T16:57:00;8.20;;;3.05;;
7289;SDS011;63176;52.678;13.250;2023-02-28T16:59:27;3.72;;;2.10;;
7289;SDS011;63176;52.678;13.250;2023-02-28T17:01:54;3.75;;;2.40;;
7289;SDS011;63176;52.678;13.250;2023-02-28T17:04:22;5.03;;;2.40;;
7289;SDS011;63176;52.678;13.250;2023-02-28T17:06:51;3.50;;;2.40;;
7289;SDS011;63176;52.678;13.250;2023-02-28T17:09:19;2.00;;;1.85;;
7289;SDS011;63176;52.678;13.250;2023-02-28T17:11:47;2.22;;;2.03;;
7289;SDS011;63176;52.678;13.250;2023-02-28T17:14:13;2.03;;;1.90;;
7289;SDS011;63176;52.678;13.250;2023-02-28T17:16:40;3.13;;;2.20;;
7289;SDS011;63176;52.678;13.250;2023-02-28T17:19:09;3.33;;;2.70;;
7289;SDS011;63176;52.678;13.250;2023-02-28T17:21:38;4.53;;;2.80;;
7289;SDS011;63176;52.678;13.250;2023-02-28T17:24:04;7.15;;;3.70;;
7289;SDS011;63176;52.678;13.250;2023-02-28T17:26:30;9.93;;;5.20;;
7289;SDS011;63176;52.678;13.250;2023-02-28T17:28:56;6.55;;;3.92;;
7289;SDS011;63176;52.678;13.250;2023-02-28T17:31:23;12.50;;;5.30;;
7289;SDS011;63176;52.678;13.250;2023-02-28T17:33:49;9.50;;;4.28;;
7289;SDS011;63176;52.678;13.250;2023-02-28T17:36:17;6.78;;;4.72;;
7289;SDS011;63176;52.678;13.250;2023-02-28T17:38:47;7.75;;;4.70;;
7289;SDS011;63176;52.678;13.250;2023-02-28T17:41:13;6.18;;;3.60;;
7289;SDS011;63176;52.678;13.250;2023-02-28T17:43:39;5.60;;;3.60;;
7289;SDS011;63176;52.678;13.250;2023-02-28T17:46:05;9.90;;;4.10;;
7289;SDS011;63176;52.678;13.250;2023-02-28T17:48:36;7.15;;;3.90;;